sensor_id;sensor_type;location;lat;lon;timestamp;pressure;altitude;pressure_sealevel;temperature;humidity
80911;BME280;70359;51.420;7.032;2023-08-24T00:01:35;1003.592;;;21.22;55.88672
80911;BME280;70359;51.420;7.032;2023-08-24T00:04:00;1003.576;;;21.17;56.04297
80911;BME280;70359;51.420;7.032;2023-08-24T00:06:25;1003.537;;;21.18;55.90527
80911;BME280;70359;51.420;7.032;2023-08-24T00:08:50;1003.506;;;21.13;56.34082
80911;BME280;70359;51.420;7.032;2023-08-24T00:11:15;1003.498;;;21.14;56.31836
80911;BME280;70359;51.420;7.032;2023-08-24T00:13:40;1003.51;;;21.11;56.5127
80911;BME280;70359;51.420;7.032;2023-08-24T00:16:05;1003.499;;;21.09;56.42773
80911;BME280;70359;51.420;7.032;2023-08-24T00:18:30;1003.498;;;21.08;56.53125
80911;BME280;70359;51.420;7.032;2023-08-24T00:20:55;1003.49;;;21.09;56.27734
80911;BME280;70359;51.420;7.032;2023-08-24T00:23:20;1003.428;;;21.08;56.50879
80911;BME280;70359;51.420;7.032;2023-08-24T00:25:45;1003.456;;;21.11;56.32617
80911;BME280;70359;51.420;7.032;2023-08-24T00:28:10;1003.471;;;21.1;56.24414
80911;BME280;70359;51.420;7.032;2023-08-24T00:30:35;1003.458;;;21.07;56.35645
80911;BME280;70359;51.420;7.032;2023-08-24T00:33:00;1003.375;;;21.04;56.16699
80911;BME280;70359;51.420;7.032;2023-08-24T00:35:25;1003.332;;;21.05;56.27246
80911;BME280;70359;51.420;7.032;2023-08-24T00:37:50;1003.314;;;21.06;56.13477
80911;BME280;70359;51.420;7.032;2023-08-24T00:40:15;1003.3;;;21.02;56.26758
80911;BME280;70359;51.420;7.032;2023-08-24T00:42:41;1003.302;;;21.03;56.29199
80911;BME280;70359;51.420;7.032;2023-08-24T00:45:05;1003.253;;;21;56.6377
80911;BME280;70359;51.420;7.032;2023-08-24T00:47:30;1003.206;;;21.02;56.19824
80911;BME280;70359;51.420;7.032;2023-08-24T00:49:55;1003.18;;;21;56.74219
80911;BME280;70359;51.420;7.032;2023-08-24T00:52:20;1003.165;;;21.01;56.84766
80911;BME280;70359;51.420;7.032;2023-08-24T00:54:45;1003.198;;;21.01;56.82324
80911;BME280;70359;51.420;7.032;2023-08-24T00:57:10;1003.197;;;21.02;56.94238
80911;BME280;70359;51.420;7.032;2023-08-24T00:59:35;1003.219;;;21.01;56.80176
80911;BME280;70359;51.420;7.032;2023-08-24T01:02:00;1003.161;;;21.01;56.55762
80911;BME280;70359;51.420;7.032;2023-08-24T01:04:25;1003.184;;;20.99;56.79785
80911;BME280;70359;51.420;7.032;2023-08-24T01:06:50;1003.217;;;21;56.87012
80911;BME280;70359;51.420;7.032;2023-08-24T01:09:15;1003.197;;;20.94;56.48926
80911;BME280;70359;51.420;7.032;2023-08-24T01:11:43;1003.159;;;20.95;56.85059
80911;BME280;70359;51.420;7.032;2023-08-24T01:14:08;1003.152;;;20.93;56.9873
80911;BME280;70359;51.420;7.032;2023-08-24T01:16:30;1003.12;;;20.95;57.04785
80911;BME280;70359;51.420;7.032;2023-08-24T01:18:55;1003.064;;;20.9;56.99609
80911;BME280;70359;51.420;7.032;2023-08-24T01:21:20;1002.99;;;20.9;56.98535
80911;BME280;70359;51.420;7.032;2023-08-24T01:23:47;1003.029;;;20.88;57.23633
80911;BME280;70359;51.420;7.032;2023-08-24T01:26:14;1003.061;;;20.88;57.36426
80911;BME280;70359;51.420;7.032;2023-08-24T01:28:35;1003.044;;;20.86;57.57031
80911;BME280;70359;51.420;7.032;2023-08-24T01:31:00;1003.019;;;20.87;57.38477
80911;BME280;70359;51.420;7.032;2023-08-24T01:33:25;1002.982;;;20.83;57.33398
80911;BME280;70359;51.420;7.032;2023-08-24T01:35:50;1003.044;;;20.82;57.12402
80911;BME280;70359;51.420;7.032;2023-08-24T01:38:15;1003.026;;;20.79;57.44531
80911;BME280;70359;51.420;7.032;2023-08-24T01:40:43;1003.021;;;20.79;57.31836
80911;BME280;70359;51.420;7.032;2023-08-24T01:43:05;1003.035;;;20.79;57.35254
80911;BME280;70359;51.420;7.032;2023-08-24T01:45:31;1003.067;;;20.79;57.25879
80911;BME280;70359;51.420;7.032;2023-08-24T01:47:55;1003.08;;;20.78;57.33984
80911;BME280;70359;51.420;7.032;2023-08-24T01:50:20;1003.124;;;20.77;57.23438
80911;BME280;70359;51.420;7.032;2023-08-24T01:52:45;1003.113;;;20.76;57.41797
80911;BME280;70359;51.420;7.032;2023-08-24T01:55:10;1003.063;;;20.74;57.46191
80911;BME280;70359;51.420;7.032;2023-08-24T01:57:35;1002.995;;;20.72;57.28711
80911;BME280;70359;51.420;7.032;2023-08-24T02:00:00;1002.941;;;20.7;57.44531
80911;BME280;70359;51.420;7.032;2023-08-24T02:02:25;1002.86;;;20.69;57.20117
80911;BME280;70359;51.420;7.032;2023-08-24T02:04:50;1002.775;;;20.67;57.73145
80911;BME280;70359;51.420;7.032;2023-08-24T02:07:15;1002.792;;;20.67;57.7793
80911;BME280;70359;51.420;7.032;2023-08-24T02:09:40;1002.802;;;20.64;57.73828
80911;BME280;70359;51.420;7.032;2023-08-24T02:12:05;1002.839;;;20.63;57.64551
80911;BME280;70359;51.420;7.032;2023-08-24T02:14:30;1002.772;;;20.62;57.97949
80911;BME280;70359;51.420;7.032;2023-08-24T02:16:55;1002.758;;;20.63;57.92285
80911;BME280;70359;51.420;7.032;2023-08-24T02:19:20;1002.732;;;20.61;57.95605
80911;BME280;70359;51.420;7.032;2023-08-24T02:21:45;1002.761;;;20.61;57.93359
80911;BME280;70359;51.420;7.032;2023-08-24T02:24:10;1002.813;;;20.6;58.05859
80911;BME280;70359;51.420;7.032;2023-08-24T02:26:35;1002.814;;;20.6;57.4209
80911;BME280;70359;51.420;7.032;2023-08-24T02:29:00;1002.818;;;20.58;58.12402
80911;BME280;70359;51.420;7.032;2023-08-24T02:31:25;1002.806;;;20.59;57.8252
80911;BME280;70359;51.420;7.032;2023-08-24T02:33:50;1002.72;;;20.57;58.01953
80911;BME280;70359;51.420;7.032;2023-08-24T02:36:15;1002.641;;;20.58;57.70703
80911;BME280;70359;51.420;7.032;2023-08-24T02:38:40;1002.615;;;20.54;57.84277
80911;BME280;70359;51.420;7.032;2023-08-24T02:41:06;1002.615;;;20.55;57.80762
80911;BME280;70359;51.420;7.032;2023-08-24T02:43:30;1002.658;;;20.5;57.88379
80911;BME280;70359;51.420;7.032;2023-08-24T02:45:58;1002.733;;;20.47;57.92578
80911;BME280;70359;51.420;7.032;2023-08-24T02:48:20;1002.74;;;20.47;57.84473
80911;BME280;70359;51.420;7.032;2023-08-24T02:50:49;1002.709;;;20.49;58.10254
80911;BME280;70359;51.420;7.032;2023-08-24T02:53:10;1002.694;;;20.5;58.17285
80911;BME280;70359;51.420;7.032;2023-08-24T02:55:35;1002.673;;;20.48;58.16895
80911;BME280;70359;51.420;7.032;2023-08-24T02:58:00;1002.659;;;20.48;58.12402
80911;BME280;70359;51.420;7.032;2023-08-24T03:00:25;1002.741;;;20.46;57.9248
80911;BME280;70359;51.420;7.032;2023-08-24T03:02:50;1002.725;;;20.47;57.84473
80911;BME280;70359;51.420;7.032;2023-08-24T03:05:15;1002.752;;;20.47;57.69434
80911;BME280;70359;51.420;7.032;2023-08-24T03:07:40;1002.811;;;20.47;57.82227
80911;BME280;70359;51.420;7.032;2023-08-24T03:10:06;1002.872;;;20.43;57.76855
80911;BME280;70359;51.420;7.032;2023-08-24T03:12:30;1002.864;;;20.44;57.95605
80911;BME280;70359;51.420;7.032;2023-08-24T03:14:55;1002.818;;;20.43;58.29004
80911;BME280;70359;51.420;7.032;2023-08-24T03:17:20;1002.659;;;20.45;58.16602
80911;BME280;70359;51.420;7.032;2023-08-24T03:19:45;1002.632;;;20.44;57.95703
80911;BME280;70359;51.420;7.032;2023-08-24T03:22:10;1002.618;;;20.45;58.11914
80911;BME280;70359;51.420;7.032;2023-08-24T03:24:35;1002.607;;;20.45;58.22363
80911;BME280;70359;51.420;7.032;2023-08-24T03:27:00;1002.641;;;20.47;58.13477
80911;BME280;70359;51.420;7.032;2023-08-24T03:29:25;1002.691;;;20.46;58.19043
80911;BME280;70359;51.420;7.032;2023-08-24T03:31:50;1002.678;;;20.48;58.34277
80911;BME280;70359;51.420;7.032;2023-08-24T03:34:15;1002.612;;;20.46;58.3291
80911;BME280;70359;51.420;7.032;2023-08-24T03:36:40;1002.61;;;20.47;58.12305
80911;BME280;70359;51.420;7.032;2023-08-24T03:39:05;1002.598;;;20.44;58.1875
80911;BME280;70359;51.420;7.032;2023-08-24T03:41:30;1002.673;;;20.47;58.2041
80911;BME280;70359;51.420;7.032;2023-08-24T03:43:55;1002.769;;;20.46;58.47949
80911;BME280;70359;51.420;7.032;2023-08-24T03:46:20;1002.762;;;20.47;58.09961
80911;BME280;70359;51.420;7.032;2023-08-24T03:48:45;1002.741;;;20.45;58.3623
80911;BME280;70359;51.420;7.032;2023-08-24T03:51:10;1002.779;;;20.47;58.35449
80911;BME280;70359;51.420;7.032;2023-08-24T03:53:35;1002.883;;;20.44;58.27051
80911;BME280;70359;51.420;7.032;2023-08-24T03:56:01;1002.92;;;20.46;58.20313
80911;BME280;70359;51.420;7.032;2023-08-24T03:58:25;1002.953;;;20.47;58.56348
80911;BME280;70359;51.420;7.032;2023-08-24T04:00:50;1002.989;;;20.49;58.51855
80911;BME280;70359;51.420;7.032;2023-08-24T04:03:15;1002.948;;;20.48;58.63281
80911;BME280;70359;51.420;7.032;2023-08-24T04:05:40;1002.893;;;20.52;58.70898
80911;BME280;70359;51.420;7.032;2023-08-24T04:08:05;1002.801;;;20.54;58.73438
80911;BME280;70359;51.420;7.032;2023-08-24T04:10:30;1002.684;;;20.54;58.8623
80911;BME280;70359;51.420;7.032;2023-08-24T04:12:55;1002.593;;;20.55;58.6084
80911;BME280;70359;51.420;7.032;2023-08-24T04:15:20;1002.479;;;20.58;58.95898
80911;BME280;70359;51.420;7.032;2023-08-24T04:17:45;1002.445;;;20.6;58.71875
80911;BME280;70359;51.420;7.032;2023-08-24T04:20:11;1002.441;;;20.56;58.2373
80911;BME280;70359;51.420;7.032;2023-08-24T04:22:35;1002.39;;;20.58;58.86621
80911;BME280;70359;51.420;7.032;2023-08-24T04:25:00;1002.338;;;20.56;59.0498
80911;BME280;70359;51.420;7.032;2023-08-24T04:27:25;1002.339;;;20.59;59.06445
80911;BME280;70359;51.420;7.032;2023-08-24T04:29:51;1002.331;;;20.58;59.53711
80911;BME280;70359;51.420;7.032;2023-08-24T04:32:15;1002.364;;;20.59;60.1875
80911;BME280;70359;51.420;7.032;2023-08-24T04:34:40;1002.379;;;20.57;60.27832
80911;BME280;70359;51.420;7.032;2023-08-24T04:37:05;1002.374;;;20.59;60.68555
80911;BME280;70359;51.420;7.032;2023-08-24T04:39:30;1002.308;;;20.58;60.72949
80911;BME280;70359;51.420;7.032;2023-08-24T04:41:55;1002.305;;;20.58;60.41797
80911;BME280;70359;51.420;7.032;2023-08-24T04:44:20;1002.335;;;20.57;60.14941
80911;BME280;70359;51.420;7.032;2023-08-24T04:46:45;1002.364;;;20.58;60.15137
80911;BME280;70359;51.420;7.032;2023-08-24T04:49:10;1002.322;;;20.57;60.25488
80911;BME280;70359;51.420;7.032;2023-08-24T04:51:35;1002.137;;;20.59;60.25586
80911;BME280;70359;51.420;7.032;2023-08-24T04:54:00;1001.993;;;20.56;60.58887
80911;BME280;70359;51.420;7.032;2023-08-24T04:56:25;1001.867;;;20.57;60.40527
80911;BME280;70359;51.420;7.032;2023-08-24T04:58:57;1001.931;;;20.54;60.69043
80911;BME280;70359;51.420;7.032;2023-08-24T05:01:15;1001.873;;;20.57;60.12793
80911;BME280;70359;51.420;7.032;2023-08-24T05:03:40;1001.862;;;20.55;60.7041
80911;BME280;70359;51.420;7.032;2023-08-24T05:06:05;1001.731;;;20.58;60.78711
80911;BME280;70359;51.420;7.032;2023-08-24T05:08:30;1001.689;;;20.56;61.16797
80911;BME280;70359;51.420;7.032;2023-08-24T05:10:56;1001.708;;;20.57;60.85547
80911;BME280;70359;51.420;7.032;2023-08-24T05:13:21;1001.656;;;20.55;61.17676
80911;BME280;70359;51.420;7.032;2023-08-24T05:15:46;1001.681;;;20.56;61.15527
80911;BME280;70359;51.420;7.032;2023-08-24T05:18:11;1001.683;;;20.55;61.21191
80911;BME280;70359;51.420;7.032;2023-08-24T05:20:35;1001.629;;;20.54;61.30371
80911;BME280;70359;51.420;7.032;2023-08-24T05:23:01;1001.619;;;20.55;61.39648
80911;BME280;70359;51.420;7.032;2023-08-24T05:25:26;1001.513;;;20.51;61.42676
80911;BME280;70359;51.420;7.032;2023-08-24T05:27:51;1001.469;;;20.52;61.25391
80911;BME280;70359;51.420;7.032;2023-08-24T05:30:16;1001.256;;;20.48;60.94727
80911;BME280;70359;51.420;7.032;2023-08-24T05:32:41;1001.181;;;20.48;61.22656
80911;BME280;70359;51.420;7.032;2023-08-24T05:35:06;1001.161;;;20.47;61.56055
80911;BME280;70359;51.420;7.032;2023-08-24T05:37:31;1001.169;;;20.5;61.77246
80911;BME280;70359;51.420;7.032;2023-08-24T05:39:56;1001.207;;;20.5;61.67969
80911;BME280;70359;51.420;7.032;2023-08-24T05:42:21;1001.262;;;20.57;60.37012
80911;BME280;70359;51.420;7.032;2023-08-24T05:44:46;1001.254;;;20.6;59.99219
80911;BME280;70359;51.420;7.032;2023-08-24T05:47:11;1001.302;;;20.63;58.91895
80911;BME280;70359;51.420;7.032;2023-08-24T05:49:36;1001.334;;;20.59;60.35059
80911;BME280;70359;51.420;7.032;2023-08-24T05:52:01;1001.294;;;20.61;60.2002
80911;BME280;70359;51.420;7.032;2023-08-24T05:54:26;1001.281;;;20.61;58.38477
80911;BME280;70359;51.420;7.032;2023-08-24T05:56:51;1001.26;;;20.65;58.32031
80911;BME280;70359;51.420;7.032;2023-08-24T05:59:16;1001.263;;;20.64;59.12988
80911;BME280;70359;51.420;7.032;2023-08-24T06:01:41;1001.247;;;20.67;59.79492
80911;BME280;70359;51.420;7.032;2023-08-24T06:04:06;1001.206;;;20.68;59.92188
80911;BME280;70359;51.420;7.032;2023-08-24T06:06:31;1001.188;;;20.73;60.13672
80911;BME280;70359;51.420;7.032;2023-08-24T06:08:56;1001.2;;;20.72;60.25195
80911;BME280;70359;51.420;7.032;2023-08-24T06:11:21;1001.119;;;20.79;58.7666
80911;BME280;70359;51.420;7.032;2023-08-24T06:13:46;1001.089;;;20.79;58.84668
80911;BME280;70359;51.420;7.032;2023-08-24T06:16:11;1001.077;;;20.83;58.61035
80911;BME280;70359;51.420;7.032;2023-08-24T06:18:36;1001.072;;;20.83;59.23535
80911;BME280;70359;51.420;7.032;2023-08-24T06:21:01;1001.079;;;20.87;57.39648
80911;BME280;70359;51.420;7.032;2023-08-24T06:23:26;1001.082;;;20.9;57.5752
80911;BME280;70359;51.420;7.032;2023-08-24T06:25:51;1001.06;;;20.93;56.02441
80911;BME280;70359;51.420;7.032;2023-08-24T06:28:16;1001.09;;;20.95;57.75586
80911;BME280;70359;51.420;7.032;2023-08-24T06:30:41;1001.077;;;21.02;56.60449
80911;BME280;70359;51.420;7.032;2023-08-24T06:33:06;1001.085;;;21.04;56.77051
80911;BME280;70359;51.420;7.032;2023-08-24T06:35:31;1001.134;;;21.06;57.81641
80911;BME280;70359;51.420;7.032;2023-08-24T06:37:56;1001.113;;;21.11;56.69727
80911;BME280;70359;51.420;7.032;2023-08-24T06:40:21;1001.103;;;21.14;56.89844
80911;BME280;70359;51.420;7.032;2023-08-24T06:42:46;1001.18;;;21.2;57.64844
80911;BME280;70359;51.420;7.032;2023-08-24T06:45:11;1001.114;;;21.2;55.88574
80911;BME280;70359;51.420;7.032;2023-08-24T06:47:36;1001.079;;;21.32;58.0127
80911;BME280;70359;51.420;7.032;2023-08-24T06:50:01;1001.027;;;21.32;59.0332
80911;BME280;70359;51.420;7.032;2023-08-24T06:52:26;1001.051;;;21.43;59.60547
80911;BME280;70359;51.420;7.032;2023-08-24T06:54:51;1001.007;;;21.47;59.52734
80911;BME280;70359;51.420;7.032;2023-08-24T06:57:16;1000.998;;;21.58;59.1709
80911;BME280;70359;51.420;7.032;2023-08-24T06:59:41;1001.005;;;21.61;59.79004
80911;BME280;70359;51.420;7.032;2023-08-24T07:02:06;1001.023;;;21.72;59.38672
80911;BME280;70359;51.420;7.032;2023-08-24T07:04:31;1001;;;21.81;58.81836
80911;BME280;70359;51.420;7.032;2023-08-24T07:06:56;1000.943;;;21.91;59.50488
80911;BME280;70359;51.420;7.032;2023-08-24T07:09:21;1000.889;;;21.84;59.21777
80911;BME280;70359;51.420;7.032;2023-08-24T07:11:46;1000.913;;;21.93;60.22852
80911;BME280;70359;51.420;7.032;2023-08-24T07:14:11;1000.894;;;22;59.45898
80911;BME280;70359;51.420;7.032;2023-08-24T07:16:36;1000.898;;;22.08;56.58789
80911;BME280;70359;51.420;7.032;2023-08-24T07:19:01;1000.898;;;22.09;56.99512
80911;BME280;70359;51.420;7.032;2023-08-24T07:21:26;1000.86;;;22.36;56.80859
80911;BME280;70359;51.420;7.032;2023-08-24T07:23:51;1000.834;;;22.37;56.60156
80911;BME280;70359;51.420;7.032;2023-08-24T07:26:16;1000.866;;;22.55;57.31055
80911;BME280;70359;51.420;7.032;2023-08-24T07:28:41;1000.88;;;22.55;57.1709
80911;BME280;70359;51.420;7.032;2023-08-24T07:31:10;1000.88;;;22.67;58.64063
80911;BME280;70359;51.420;7.032;2023-08-24T07:33:31;1000.791;;;22.74;55.66895
80911;BME280;70359;51.420;7.032;2023-08-24T07:35:56;1000.736;;;22.81;55.26953
80911;BME280;70359;51.420;7.032;2023-08-24T07:38:22;1000.662;;;22.91;56.03906
80911;BME280;70359;51.420;7.032;2023-08-24T07:40:46;1000.664;;;22.96;55.38184
80911;BME280;70359;51.420;7.032;2023-08-24T07:43:11;1000.693;;;23.05;54.84473
80911;BME280;70359;51.420;7.032;2023-08-24T07:45:36;1000.65;;;23.08;54.69727
80911;BME280;70359;51.420;7.032;2023-08-24T07:48:01;1000.596;;;23.2;54.10449
80911;BME280;70359;51.420;7.032;2023-08-24T07:50:26;1000.683;;;23.3;53.04395
80911;BME280;70359;51.420;7.032;2023-08-24T07:52:51;1000.68;;;23.37;53.49512
80911;BME280;70359;51.420;7.032;2023-08-24T07:55:16;1000.642;;;23.46;52.98047
80911;BME280;70359;51.420;7.032;2023-08-24T07:57:41;1000.612;;;23.57;53.01563
80911;BME280;70359;51.420;7.032;2023-08-24T08:00:06;1000.596;;;23.59;53.71973
80911;BME280;70359;51.420;7.032;2023-08-24T08:02:31;1000.646;;;23.74;53.375
80911;BME280;70359;51.420;7.032;2023-08-24T08:04:59;1000.662;;;23.72;52.43945
80911;BME280;70359;51.420;7.032;2023-08-24T08:07:21;1000.704;;;23.88;51.70898
80911;BME280;70359;51.420;7.032;2023-08-24T08:09:46;1000.724;;;23.87;52.81836
80911;BME280;70359;51.420;7.032;2023-08-24T08:12:11;1000.724;;;23.95;52.00879
80911;BME280;70359;51.420;7.032;2023-08-24T08:14:36;1000.771;;;24;52.62305
80911;BME280;70359;51.420;7.032;2023-08-24T08:17:01;1000.81;;;24.15;54.18359
80911;BME280;70359;51.420;7.032;2023-08-24T08:19:26;1000.82;;;24.27;53.69629
80911;BME280;70359;51.420;7.032;2023-08-24T08:21:51;1000.772;;;24.35;51.1416
80911;BME280;70359;51.420;7.032;2023-08-24T08:24:16;1000.676;;;24.44;54.16016
80911;BME280;70359;51.420;7.032;2023-08-24T08:26:41;1000.654;;;24.54;52.28711
80911;BME280;70359;51.420;7.032;2023-08-24T08:29:06;1000.632;;;24.58;52.11719
80911;BME280;70359;51.420;7.032;2023-08-24T08:31:31;1000.548;;;24.67;51.43652
80911;BME280;70359;51.420;7.032;2023-08-24T08:33:56;1000.529;;;24.69;51.36816
80911;BME280;70359;51.420;7.032;2023-08-24T08:36:21;1000.54;;;24.78;50.65332
80911;BME280;70359;51.420;7.032;2023-08-24T08:38:46;1000.504;;;24.82;50.71582
80911;BME280;70359;51.420;7.032;2023-08-24T08:41:11;1000.492;;;24.83;50.69336
80911;BME280;70359;51.420;7.032;2023-08-24T08:43:37;1000.548;;;24.98;51.37695
80911;BME280;70359;51.420;7.032;2023-08-24T08:46:01;1000.579;;;25.01;50.00977
80911;BME280;70359;51.420;7.032;2023-08-24T08:48:26;1000.538;;;25.13;52.51953
80911;BME280;70359;51.420;7.032;2023-08-24T08:50:51;1000.56;;;25.2;51.71973
80911;BME280;70359;51.420;7.032;2023-08-24T08:53:16;1000.477;;;25.25;50.79785
80911;BME280;70359;51.420;7.032;2023-08-24T08:55:41;1000.451;;;25.27;50.12109
80911;BME280;70359;51.420;7.032;2023-08-24T08:58:06;1000.393;;;25.39;50.55664
80911;BME280;70359;51.420;7.032;2023-08-24T09:00:31;1000.341;;;25.42;49.84375
80911;BME280;70359;51.420;7.032;2023-08-24T09:02:56;1000.311;;;25.46;49.34277
80911;BME280;70359;51.420;7.032;2023-08-24T09:05:21;1000.182;;;25.48;49.28613
80911;BME280;70359;51.420;7.032;2023-08-24T09:07:46;1000.153;;;25.55;49.23535
80911;BME280;70359;51.420;7.032;2023-08-24T09:10:11;1000.121;;;25.51;50.61621
80911;BME280;70359;51.420;7.032;2023-08-24T09:12:38;1000.047;;;25.64;51.00586
80911;BME280;70359;51.420;7.032;2023-08-24T09:19:55;999.9422;;;25.62;49.83008
80911;BME280;70359;51.420;7.032;2023-08-24T09:22:16;999.8508;;;25.75;50.50293
80911;BME280;70359;51.420;7.032;2023-08-24T09:24:41;999.7649;;;25.71;48.74707
80911;BME280;70359;51.420;7.032;2023-08-24T09:27:14;999.7049;;;25.74;48.64551
80911;BME280;70359;51.420;7.032;2023-08-24T09:29:32;999.6175;;;25.74;49.52539
80911;BME280;70359;51.420;7.032;2023-08-24T09:31:56;999.5421;;;25.85;50.34766
80911;BME280;70359;51.420;7.032;2023-08-24T09:36:46;999.4572;;;25.96;49.52734
80911;BME280;70359;51.420;7.032;2023-08-24T09:39:11;999.4036;;;25.92;48.72363
80911;BME280;70359;51.420;7.032;2023-08-24T09:41:43;999.3123;;;25.98;48.06055
80911;BME280;70359;51.420;7.032;2023-08-24T09:44:06;999.2206;;;26;48.48535
80911;BME280;70359;51.420;7.032;2023-08-24T09:46:26;999.1797;;;25.99;48.22461
80911;BME280;70359;51.420;7.032;2023-08-24T09:48:56;999.1495;;;26.01;48.15723
80911;BME280;70359;51.420;7.032;2023-08-24T09:51:16;999.1603;;;26.05;47.32617
80911;BME280;70359;51.420;7.032;2023-08-24T09:53:41;999.1623;;;26.09;47.95313
80911;BME280;70359;51.420;7.032;2023-08-24T09:56:06;999.1545;;;26.08;47.23535
80911;BME280;70359;51.420;7.032;2023-08-24T09:58:31;999.1142;;;26.02;47.875
80911;BME280;70359;51.420;7.032;2023-08-24T10:00:56;999.1728;;;25.97;48.3291
80911;BME280;70359;51.420;7.032;2023-08-24T10:03:23;999.2258;;;26.09;47.2959
80911;BME280;70359;51.420;7.032;2023-08-24T10:05:46;999.2693;;;26.05;46.73828
80911;BME280;70359;51.420;7.032;2023-08-24T10:08:11;999.3084;;;26.15;47.87793
80911;BME280;70359;51.420;7.032;2023-08-24T10:10:36;999.4211;;;26.18;47.08008
80911;BME280;70359;51.420;7.032;2023-08-24T10:13:04;999.486;;;26.25;46.77051
80911;BME280;70359;51.420;7.032;2023-08-24T10:15:26;999.5176;;;26.26;46.98242
80911;BME280;70359;51.420;7.032;2023-08-24T10:17:51;999.4906;;;26.3;47.62305
80911;BME280;70359;51.420;7.032;2023-08-24T10:20:16;999.4983;;;26.31;48.30566
80911;BME280;70359;51.420;7.032;2023-08-24T10:22:41;999.4631;;;26.34;49.01563
80911;BME280;70359;51.420;7.032;2023-08-24T10:25:07;999.5232;;;26.28;48.20898
80911;BME280;70359;51.420;7.032;2023-08-24T10:27:31;999.5934;;;26.33;47.71973
80911;BME280;70359;51.420;7.032;2023-08-24T10:29:56;999.6319;;;26.28;49.05566
80911;BME280;70359;51.420;7.032;2023-08-24T10:32:22;999.6261;;;26.32;46.45996
80911;BME280;70359;51.420;7.032;2023-08-24T10:34:46;999.6005;;;26.25;45.96973
80911;BME280;70359;51.420;7.032;2023-08-24T10:37:11;999.5652;;;26.33;47.35547
80911;BME280;70359;51.420;7.032;2023-08-24T10:39:43;999.4613;;;26.3;46.99902
80911;BME280;70359;51.420;7.032;2023-08-24T10:42:01;999.4868;;;26.35;46.69824
80911;BME280;70359;51.420;7.032;2023-08-24T10:44:34;999.5074;;;26.32;47.11914
80911;BME280;70359;51.420;7.032;2023-08-24T10:47:10;999.5578;;;26.38;48.86719
80911;BME280;70359;51.420;7.032;2023-08-24T10:49:18;999.5341;;;26.35;47.43945
80911;BME280;70359;51.420;7.032;2023-08-24T10:51:46;999.5416;;;26.39;47.56152
80911;BME280;70359;51.420;7.032;2023-08-24T10:54:06;999.5589;;;26.42;48.02441
80911;BME280;70359;51.420;7.032;2023-08-24T10:56:35;999.5492;;;26.43;47.18848
80911;BME280;70359;51.420;7.032;2023-08-24T11:01:21;999.5281;;;26.46;47.20313
80911;BME280;70359;51.420;7.032;2023-08-24T11:03:50;999.5373;;;26.51;46.20703
80911;BME280;70359;51.420;7.032;2023-08-24T11:06:21;999.4989;;;26.46;46.43945
80911;BME280;70359;51.420;7.032;2023-08-24T11:08:49;999.465;;;26.53;46.02148
80911;BME280;70359;51.420;7.032;2023-08-24T11:11:01;999.4683;;;26.51;47.7627
80911;BME280;70359;51.420;7.032;2023-08-24T11:15:43;999.3831;;;26.57;49.19238
80911;BME280;70359;51.420;7.032;2023-08-24T11:18:19;999.449;;;26.62;48.25781
80911;BME280;70359;51.420;7.032;2023-08-24T11:20:29;999.3812;;;26.56;45.95313
80911;BME280;70359;51.420;7.032;2023-08-24T11:22:56;999.2849;;;26.59;46.4873
80911;BME280;70359;51.420;7.032;2023-08-24T11:25:19;999.1216;;;26.59;46.19141
80911;BME280;70359;51.420;7.032;2023-08-24T11:27:44;999.0289;;;26.65;46.19922
80911;BME280;70359;51.420;7.032;2023-08-24T11:30:10;998.9417;;;26.64;47.13965
80911;BME280;70359;51.420;7.032;2023-08-24T11:32:34;998.9934;;;26.64;46.4209
80911;BME280;70359;51.420;7.032;2023-08-24T11:34:59;999.0571;;;26.6;47.11328
80911;BME280;70359;51.420;7.032;2023-08-24T11:37:25;999.0015;;;26.69;48.1582
80911;BME280;70359;51.420;7.032;2023-08-24T11:39:49;999.0179;;;26.64;48.44727
80911;BME280;70359;51.420;7.032;2023-08-24T11:42:14;999.0631;;;26.69;48.52441
80911;BME280;70359;51.420;7.032;2023-08-24T11:44:48;999.1088;;;26.62;48.58594
80911;BME280;70359;51.420;7.032;2023-08-24T11:47:04;999.1567;;;26.67;48.45215
80911;BME280;70359;51.420;7.032;2023-08-24T11:49:29;999.2011;;;26.59;47.52441
80911;BME280;70359;51.420;7.032;2023-08-24T11:51:55;999.233;;;26.67;46.41211
80911;BME280;70359;51.420;7.032;2023-08-24T11:54:20;999.3304;;;26.62;46.39551
80911;BME280;70359;51.420;7.032;2023-08-24T11:56:45;999.3405;;;26.62;47.33887
80911;BME280;70359;51.420;7.032;2023-08-24T11:59:10;999.3401;;;26.54;47.37793
80911;BME280;70359;51.420;7.032;2023-08-24T12:01:34;999.3578;;;26.6;47.20801
80911;BME280;70359;51.420;7.032;2023-08-24T12:04:00;999.3287;;;26.62;46.66699
80911;BME280;70359;51.420;7.032;2023-08-24T12:06:26;999.2014;;;26.57;47.3457
80911;BME280;70359;51.420;7.032;2023-08-24T12:08:49;999.1931;;;26.62;47.37305
80911;BME280;70359;51.420;7.032;2023-08-24T12:11:16;999.1948;;;26.58;48.04102
80911;BME280;70359;51.420;7.032;2023-08-24T12:13:42;999.1747;;;26.6;47.26563
80911;BME280;70359;51.420;7.032;2023-08-24T12:16:04;999.1699;;;26.57;46.9209
80911;BME280;70359;51.420;7.032;2023-08-24T12:18:29;999.1858;;;26.63;46.73926
80911;BME280;70359;51.420;7.032;2023-08-24T12:20:54;999.1582;;;26.54;46.90625
80911;BME280;70359;51.420;7.032;2023-08-24T12:23:19;999.0691;;;26.61;48.17285
80911;BME280;70359;51.420;7.032;2023-08-24T12:25:45;998.9944;;;26.55;47.67285
80911;BME280;70359;51.420;7.032;2023-08-24T12:28:13;998.8958;;;26.58;48.12305
80911;BME280;70359;51.420;7.032;2023-08-24T12:30:36;998.8733;;;26.54;48.37793
80911;BME280;70359;51.420;7.032;2023-08-24T12:32:59;998.7648;;;26.61;46.98438